FW1708 Weather Reports


time (UTC)temp
F
wind
direction
speed
knots
gust
knots
rain 1hr
in
rain 24hr
in
rain mn
in
humidity
%
barometer
mb
20220124164549 29 246 0.0 2.6 0.00 0.00 0.00 62 1014.7
20220124163018 28 186 0.0 1.7 0.00 0.00 0.00 64 1014.8
20220124161542 28 328 1.7 4.3 0.00 0.00 0.00 65 1014.9
20220124160034 28 68 0.0 2.6 0.00 0.00 0.00 66 1015.3
20220124154527 27 25 0.0 3.5 0.00 0.00 0.00 67 1015.3
20220124153050 27 71 0.9 3.5 0.00 0.00 0.00 68 1015.3
20220124151515 26 305 1.7 4.3 0.00 0.00 0.00 68 1015.4
20220124150007 25 293 0.0 3.5 0.00 0.00 0.00 69 1015.7
20220124144525 25 309 0.9 5.2 0.00 0.00 0.00 70 1015.8
20220124143004 25 294 0.9 3.5 0.00 0.00 0.00 72 1015.7
20220124141511 24 38 0.0 5.2 0.00 0.00 0.00 74 1015.5
20220124140001 24 52 0.0 3.5 0.00 0.00 0.00 75 1015.5
20220124134643 23 360 0.9 3.5 0.00 0.00 0.00 77 1015.4
20220124133130 22 336 0.9 4.3 0.00 0.00 0.00 78 1015.5
20220124131648 22 325 1.7 5.2 0.00 0.00 0.00 79 1015.4
20220124130104 21 302 0.0 1.7 0.00 0.00 0.00 81 1015.5
20220124124743 21 355 0.0 2.6 0.00 0.00 0.00 82 1015.2
20220124123232 21 39 0.0 0.0 0.00 0.00 0.00 82 1015.1
20220124121606 21 83 0.0 1.7 0.00 0.00 0.00 82 1014.7
20220124120157 22 332 0.0 3.5 0.00 0.00 0.00 83 1014.6
20220124114636 22 346 0.0 2.6 0.00 0.00 0.00 83 1014.3
20220124113117 22 325 0.0 3.5 0.00 0.00 0.00 84 1014.1
20220124111620 23 350 0.0 1.7 0.00 0.00 0.00 85 1013.8
20220124110041 23 88 0.0 2.6 0.00 0.00 0.00 86 1013.2
20220124104606 24 17 0.0 2.6 0.00 0.00 0.00 88 1013.0
20220124103109 24 300 0.9 4.3 0.00 0.00 0.00 90 1012.9
20220124101619 22 284 0.0 0.0 0.00 0.00 0.00 91 1012.4
20220124100101 20 321 0.0 0.0 0.00 0.00 0.00 89 1012.6
20220124094516 20 321 0.0 0.0 0.00 0.00 0.00 89 1012.1
20220124093011 20 321 0.0 0.0 0.00 0.00 0.00 89 1011.7
20220124091521 20 321 0.0 0.0 0.00 0.00 0.00 89 1011.6
20220124090005 21 321 0.0 0.0 0.00 0.00 0.00 89 1011.4
20220124084503 21 321 0.0 0.0 0.00 0.00 0.00 88 1011.3
20220124083155 21 321 0.0 0.0 0.00 0.00 0.00 88 1011.1
20220124081725 22 321 0.0 0.0 0.00 0.00 0.00 88 1011.1
20220124080141 22 321 0.0 0.0 0.00 0.00 0.00 88 1011.2
20220124074641 22 321 0.0 0.0 0.00 0.00 0.00 88 1011.0
20220124073105 23 321 0.0 0.0 0.00 0.00 0.00 88 1011.0
20220124071744 23 321 0.0 0.0 0.00 0.00 0.00 87 1010.8
20220124070110 24 321 0.0 0.0 0.00 0.00 0.00 87 1010.6
20220124064650 24 321 0.0 0.0 0.00 0.00 0.00 87 1010.6
20220124063106 25 321 0.0 0.0 0.00 0.00 0.00 86 1010.4
20220124061543 25 321 0.0 0.0 0.00 0.00 0.00 86 1010.3
20220124060142 26 321 0.0 0.0 0.00 0.00 0.00 86 1010.2
20220124054627 26 321 0.0 0.0 0.00 0.00 0.00 86 1010.2
20220124053058 27 321 0.0 0.0 0.00 0.00 0.00 86 1010.2
20220124050050 28 321 0.0 0.0 0.00 0.00 0.00 85 1010.2
20220124044541 28 321 0.0 0.0 0.00 0.00 0.00 84 1010.2
20220124043123 29 321 0.0 0.0 0.00 0.00 0.00 84 1010.3
20220124041809 29 321 0.0 0.0 0.00 0.00 0.00 85 1010.4
20220124040103 29 321 0.0 0.0 0.00 0.00 0.00 84 1010.3
20220124034546 29 321 0.0 0.0 0.00 0.00 0.00 84 1010.3
20220124033055 29 321 0.0 0.0 0.00 0.00 0.00 84 1010.3
20220124031600 29 321 0.0 0.0 0.00 0.00 0.00 84 1010.3
20220124030054 29 321 0.0 0.0 0.00 0.00 0.00 84 1010.2
20220124024536 29 321 0.0 0.0 0.00 0.00 0.00 84 1010.2
20220124023055 29 321 0.0 0.0 0.00 0.00 0.00 83 1010.3
20220124021542 29 321 0.0 0.0 0.00 0.00 0.00 84 1010.3
20220124020146 29 321 0.0 0.0 0.00 0.00 0.00 84 1010.4
20220124014537 29 321 0.0 0.0 0.00 0.00 0.00 84 1010.3
20220124013029 29 321 0.0 0.0 0.00 0.00 0.00 84 1010.4
20220124011603 29 321 0.0 0.0 0.00 0.00 0.00 83 1010.4
20220124010101 29 321 0.0 0.0 0.00 0.00 0.00 83 1010.4
20220124004531 30 321 0.0 0.0 0.00 0.00 0.00 82 1010.5
20220124003026 30 321 0.0 0.0 0.00 0.00 0.00 81 1010.5
20220124001540 30 321 0.0 0.0 0.00 0.00 0.00 81 1010.4
20220124000119 30 282 0.0 0.0 0.00 0.00 0.00 79 1010.4
20220123234554 30 282 0.0 0.0 0.00 0.00 0.00 79 1010.4
20220123233111 31 282 0.0 0.0 0.00 0.00 0.00 77 1010.5
20220123231538 31 236 0.0 1.7 0.00 0.00 0.00 76 1010.5
20220123230058 32 250 0.0 1.7 0.00 0.00 0.00 73 1010.5
20220123224523 32 222 0.9 6.1 0.00 0.00 0.00 69 1010.6
20220123223025 33 271 1.7 5.2 0.00 0.00 0.00 63 1010.4
20220123221518 34 267 0.0 4.3 0.00 0.00 0.00 59 1010.2
20220123220027 34 248 0.0 2.6 0.00 0.00 0.00 56 1010.1
20220123214551 34 290 0.0 1.7 0.00 0.00 0.00 55 1010.0
20220123213017 34 290 0.9 3.5 0.00 0.00 0.00 54 1010.0
20220123211546 35 278 0.0 2.6 0.00 0.00 0.00 53 1010.2
20220123210014 35 260 0.9 4.3 0.00 0.00 0.00 53 1010.3
20220123204511 35 303 0.0 4.3 0.00 0.00 0.00 53 1010.5
20220123203013 35 267 1.7 3.5 0.00 0.00 0.00 53 1010.7
20220123201513 36 252 0.9 3.5 0.00 0.00 0.00 52 1010.8
20220123200008 36 278 0.0 5.2 0.00 0.00 0.00 53 1010.9
20220123194531 36 167 1.7 5.2 0.00 0.00 0.00 53 1011.2
20220123193011 35 298 0.9 3.5 0.00 0.00 0.00 53 1011.3
20220123191503 35 227 0.9 5.2 0.00 0.00 0.00 54 1011.4
20220123190014 35 269 0.0 5.2 0.00 0.00 0.00 55 1011.6
20220123184730 35 255 1.7 6.1 0.00 0.00 0.00 52 1011.7
20220123183212 35 271 0.0 2.6 0.00 0.00 0.00 54 1011.8
20220123181612 35 275 0.9 4.3 0.00 0.00 0.00 53 1012.1
20220123180146 35 183 0.9 6.1 0.00 0.00 0.00 53 1012.3
20220123174628 35 250 0.9 7.0 0.00 0.00 0.00 53 1012.5
20220123173148 35 171 1.7 5.2 0.00 0.00 0.00 52 1013.0
20220123171746 34 180 0.9 6.1 0.00 0.00 0.00 52 1013.4
20220123170105 34 269 0.9 7.0 0.00 0.00 0.00 54 1014.1